Greenwood, Illinois
Current Conditions -  °F | °C
As of 6:55 PM on Sunday 21 Dec 2014 (Local Time) from KBUU Reporting Station
Overcast Overcast  
Wind Chill: 27°   Ceiling: 2500
Heat Index: 33°   Visibility: 10mi
Dew Point: 29°   Wind: 8mph
Humidity: 84%   Direction: 150°SSE
Pressure: 30.04"   Gusts: NA
Location:  42.3247°N, 88.4593°W
Report Text: KBUU 220055Z AUTO 15007KT 10SM OVC025 01/M02 A3004 RMK AO2 T00081017
Loading
Personal Weather Stations






























Interactive Weather Map New forecast layout! Learn more

10-Day Weather Forecast

Advertisements
Track Severe Weather on mobile